createdAt,value
2022-10-15T00:00:46.793Z,93622.94
2022-10-15T00:03:14.373Z,93619.41
2022-10-15T00:05:42.100Z,93613.97
2022-10-15T00:08:11.624Z,93616.16
2022-10-15T00:10:39.384Z,93608.03
2022-10-15T00:13:06.989Z,93601.78
2022-10-15T00:15:36.936Z,93603.69
2022-10-15T00:18:04.498Z,93606.41
2022-10-15T00:20:32.513Z,93608.03
2022-10-15T00:23:00.130Z,93601.78
2022-10-15T00:25:29.294Z,93599.06
2022-10-15T00:27:56.878Z,93600.72
2022-10-15T00:30:24.410Z,93597.16
2022-10-15T00:32:52.015Z,93595.28
2022-10-15T00:35:19.679Z,93590.13
2022-10-15T00:37:47.275Z,93588.22
2022-10-15T00:40:15.590Z,93595.28
2022-10-15T00:42:44.489Z,93586.31
2022-10-15T00:45:13.320Z,93586.59
2022-10-15T00:47:41.988Z,93577.66
2022-10-15T00:50:10.693Z,93576.56
2022-10-15T00:52:41.030Z,93576.56
2022-10-15T00:55:11.225Z,93573.84
2022-10-15T00:57:38.829Z,93568.44
2022-10-15T01:00:09.907Z,93571.13
2022-10-15T01:02:37.461Z,93568.69
2022-10-15T01:05:05.589Z,93574.94
2022-10-15T01:07:33.177Z,93572.50
2022-10-15T01:10:00.863Z,93574.13
2022-10-15T01:12:34.254Z,93567.09
2022-10-15T01:15:04.805Z,93561.66
2022-10-15T01:17:36.185Z,93564.38
2022-10-15T01:20:35.710Z,93567.38
2022-10-15T01:23:35.897Z,93565.47
2022-10-15T01:26:11.661Z,93556.53
2022-10-15T01:28:43.730Z,93561.97
2022-10-15T01:31:15.889Z,93557.31
2022-10-15T01:33:43.905Z,93555.44
2022-10-15T01:36:15.082Z,93550.28
2022-10-15T01:38:49.557Z,93549.19
2022-10-15T01:41:19.302Z,93550.00
2022-10-15T01:43:49.514Z,93548.41
2022-10-15T01:46:20.719Z,93545.69
2022-10-15T01:48:48.239Z,93542.16
2022-10-15T01:51:15.756Z,93538.63
2022-10-15T01:53:43.325Z,93541.34
2022-10-15T01:56:12.628Z,93543.25
2022-10-15T01:58:41.441Z,93545.94
2022-10-15T02:01:09.237Z,93538.91
2022-10-15T02:03:46.792Z,93538.63
2022-10-15T02:06:16.569Z,93539.72
2022-10-15T02:08:46.298Z,93540.53
2022-10-15T02:11:14.445Z,93539.72
2022-10-15T02:13:45.534Z,93540.53
2022-10-15T02:16:14.234Z,93545.94
2022-10-15T02:18:43.224Z,93537.00
2022-10-15T02:21:14.141Z,93542.41
2022-10-15T02:23:43.310Z,93535.38
2022-10-15T02:26:11.022Z,93532.66
2022-10-15T02:28:40.634Z,93541.63
2022-10-15T02:31:08.271Z,93531.03
2022-10-15T02:33:35.809Z,93538.09
2022-10-15T02:36:03.586Z,93534.28
2022-10-15T02:38:32.503Z,93538.38
2022-10-15T02:41:00.122Z,93534.59
2022-10-15T02:43:27.720Z,93527.53
2022-10-15T02:45:55.257Z,93524.81
2022-10-15T02:48:22.828Z,93522.13
2022-10-15T02:50:50.348Z,93514.78
2022-10-15T02:53:17.901Z,93514.78
2022-10-15T02:55:47.061Z,93513.16
2022-10-15T02:58:14.629Z,93508.56
2022-10-15T03:00:42.222Z,93513.16
2022-10-15T03:03:09.837Z,93510.44
2022-10-15T03:05:37.631Z,93504.22
2022-10-15T03:08:05.412Z,93508.81
2022-10-15T03:10:32.952Z,93505.03
2022-10-15T03:13:04.812Z,93501.00
2022-10-15T03:15:32.388Z,93504.78
2022-10-15T03:17:59.942Z,93501.00
2022-10-15T03:20:27.471Z,93509.94
2022-10-15T03:22:55.011Z,93510.75
2022-10-15T03:25:22.825Z,93520.50
2022-10-15T03:27:52.950Z,93514.56
2022-10-15T03:30:22.017Z,93514.56
2022-10-15T03:32:49.633Z,93520.78
2022-10-15T03:35:17.279Z,93529.72
2022-10-15T03:37:44.804Z,93514.56
2022-10-15T03:40:14.538Z,93521.59
2022-10-15T03:42:42.304Z,93520.78
2022-10-15T03:45:10.624Z,93521.88
2022-10-15T03:47:39.522Z,93520.78
2022-10-15T03:50:07.292Z,93521.88
2022-10-15T03:52:34.837Z,93525.69
2022-10-15T03:55:02.376Z,93521.03
2022-10-15T03:57:29.925Z,93530.00
2022-10-15T03:59:57.496Z,93524.84
2022-10-15T04:02:25.659Z,93533.81
2022-10-15T04:04:55.296Z,93528.38
2022-10-15T04:07:22.910Z,93516.72
2022-10-15T04:09:50.429Z,93518.63
2022-10-15T04:12:18.085Z,93520.25
2022-10-15T04:14:45.755Z,93521.34
2022-10-15T04:17:13.394Z,93523.25
2022-10-15T04:19:40.956Z,93527.88
2022-10-15T04:22:09.909Z,93536.81
2022-10-15T04:24:37.576Z,93525.94
2022-10-15T04:27:05.244Z,93526.78
2022-10-15T04:29:32.826Z,93529.47
2022-10-15T04:32:00.588Z,93527.56
2022-10-15T04:34:28.550Z,93526.78
2022-10-15T04:36:56.100Z,93529.47
2022-10-15T04:39:24.955Z,93529.47
2022-10-15T04:41:52.599Z,93530.59
2022-10-15T04:44:20.174Z,93531.69
2022-10-15T04:46:47.782Z,93527.03
2022-10-15T04:49:15.345Z,93539.81
2022-10-15T04:51:42.901Z,93542.22
2022-10-15T04:54:10.455Z,93550.66
2022-10-15T04:56:39.459Z,93543.31
2022-10-15T04:59:07.692Z,93552.28
2022-10-15T05:01:35.285Z,93547.94
2022-10-15T05:04:02.846Z,93546.34
2022-10-15T05:06:30.428Z,93550.94
2022-10-15T05:08:58.272Z,93564.22
2022-10-15T05:11:26.756Z,93561.50
2022-10-15T05:13:55.801Z,93554.47
2022-10-15T05:16:24.313Z,93557.97
2022-10-15T05:18:52.813Z,93562.59
2022-10-15T05:21:20.554Z,93559.06
2022-10-15T05:23:49.987Z,93563.41
2022-10-15T05:26:19.260Z,93560.69
2022-10-15T05:28:46.807Z,93573.47
2022-10-15T05:31:19.151Z,93571.53
2022-10-15T05:33:47.021Z,93576.16
2022-10-15T05:36:17.161Z,93576.16
2022-10-15T05:38:44.826Z,93581.59
2022-10-15T05:41:12.509Z,93584.31
2022-10-15T05:43:41.393Z,93586.47
2022-10-15T05:46:09.335Z,93579.97
2022-10-15T05:48:38.272Z,93586.19
2022-10-15T05:51:06.884Z,93595.16
2022-10-15T05:53:34.637Z,93604.38
2022-10-15T05:56:02.284Z,93606.00
2022-10-15T05:58:33.338Z,93602.47
2022-10-15T06:01:05.190Z,93605.16
2022-10-15T06:03:32.903Z,93614.13
2022-10-15T06:06:01.816Z,93616.84
2022-10-15T06:08:29.841Z,93620.66
2022-10-15T06:10:58.970Z,93614.13
2022-10-15T06:15:59.100Z,93623.38
2022-10-15T06:18:26.668Z,93622.28
2022-10-15T06:20:54.321Z,93630.41
2022-10-15T06:23:24.260Z,93628.78
2022-10-15T06:25:51.971Z,93618.72
2022-10-15T06:28:19.591Z,93635.84
2022-10-15T06:30:47.185Z,93642.34
2022-10-15T06:33:16.031Z,93637.72
2022-10-15T06:35:43.572Z,93650.19
2022-10-15T06:38:11.143Z,93651.56
2022-10-15T06:40:40.127Z,93647.78
2022-10-15T06:43:08.930Z,93656.97
2022-10-15T06:45:37.186Z,93659.69
2022-10-15T06:48:05.378Z,93665.09
2022-10-15T06:50:33.054Z,93670.53
2022-10-15T06:53:00.700Z,93666.75
2022-10-15T06:55:28.950Z,93670.53
2022-10-15T06:57:58.038Z,93675.97
2022-10-15T07:00:25.933Z,93686.00
2022-10-15T07:02:54.128Z,93678.66
2022-10-15T07:05:21.744Z,93693.88
2022-10-15T07:07:52.725Z,93693.88
2022-10-15T07:12:47.836Z,93702.00
2022-10-15T07:15:16.841Z,93705.78
2022-10-15T07:17:48.252Z,93710.16
2022-10-15T07:20:20.229Z,93710.16
2022-10-15T07:22:52.026Z,93715.56
2022-10-15T07:25:19.732Z,93712.88
2022-10-15T07:27:47.284Z,93703.06
2022-10-15T07:30:14.814Z,93709.31
2022-10-15T07:32:46.370Z,93721.28
2022-10-15T07:35:14.299Z,93728.56
2022-10-15T07:37:41.925Z,93720.44
2022-10-15T07:40:10.392Z,93719.66
2022-10-15T07:42:38.413Z,93721.53
2022-10-15T07:45:06.986Z,93726.97
2022-10-15T07:47:34.606Z,93729.66
2022-10-15T07:50:03.570Z,93734.31
2022-10-15T07:52:32.019Z,93740.53
2022-10-15T07:54:59.592Z,93737.81
2022-10-15T07:57:27.116Z,93751.38
2022-10-15T07:59:54.654Z,93757.63
2022-10-15T08:02:22.702Z,93763.84
2022-10-15T08:04:50.514Z,93769.25
2022-10-15T08:07:19.417Z,93773.31
2022-10-15T08:12:19.421Z,93773.88
2022-10-15T08:14:47.774Z,93775.78
2022-10-15T08:17:15.352Z,93780.09
2022-10-15T08:19:42.935Z,93780.09
2022-10-15T08:22:12.309Z,93777.41
2022-10-15T08:24:41.213Z,93773.88
2022-10-15T08:27:08.796Z,93780.09
2022-10-15T08:29:36.336Z,93782.81
2022-10-15T08:32:04.026Z,93774.69
2022-10-15T08:34:31.672Z,93784.72
2022-10-15T08:36:59.220Z,93782.81
2022-10-15T08:39:26.837Z,93783.66
2022-10-15T08:41:56.046Z,93777.41
2022-10-15T08:44:27.026Z,93786.34
2022-10-15T08:46:56.343Z,93788.25
2022-10-15T08:49:29.537Z,93783.66
2022-10-15T08:51:59.920Z,93796.94
2022-10-15T08:54:27.469Z,93802.38
2022-10-15T08:57:04.156Z,93789.59
2022-10-15T08:59:34.118Z,93784.44
2022-10-15T09:02:03.896Z,93786.88
2022-10-15T09:04:32.971Z,93791.50
2022-10-15T09:07:03.815Z,93784.19
2022-10-15T09:09:33.860Z,93788.81
2022-10-15T09:12:05.370Z,93786.88
2022-10-15T09:14:35.560Z,93790.44
2022-10-15T09:17:06.325Z,93788.50
2022-10-15T09:19:33.886Z,93792.84
2022-10-15T09:22:02.051Z,93789.34
2022-10-15T09:24:30.244Z,93787.16
2022-10-15T09:27:07.699Z,93782.53
2022-10-15T09:29:38.229Z,93787.94
2022-10-15T09:32:10.022Z,93793.38
2022-10-15T09:34:40.550Z,93793.38
2022-10-15T09:37:10.526Z,93804.22
2022-10-15T09:39:47.935Z,93805.84
2022-10-15T09:42:23.939Z,93813.72
2022-10-15T09:44:51.697Z,93805.84
2022-10-15T09:47:23.951Z,93817.50
2022-10-15T09:49:51.549Z,93818.34
2022-10-15T09:52:22.958Z,93825.38
2022-10-15T09:54:55.377Z,93828.91
2022-10-15T09:57:24.292Z,93826.19
2022-10-15T09:59:55.630Z,93824.56
2022-10-15T10:02:24.374Z,93832.44
2022-10-15T10:04:52.497Z,93841.38
2022-10-15T10:07:31.156Z,93840.56
2022-10-15T10:09:59.484Z,93838.66
2022-10-15T10:12:29.033Z,93833.22
2022-10-15T10:14:57.756Z,93828.91
2022-10-15T10:17:25.552Z,93823.22
2022-10-15T10:20:20.591Z,93824.00
2022-10-15T10:23:23.293Z,93822.91
2022-10-15T10:25:50.902Z,93824.25
2022-10-15T10:28:27.769Z,93827.78
2022-10-15T10:31:03.378Z,93819.31
2022-10-15T10:33:32.447Z,93822.31
2022-10-15T10:36:00.099Z,93821.72
2022-10-15T10:38:28.449Z,93823.84
2022-10-15T10:40:58.052Z,93821.34
2022-10-15T10:43:28.031Z,93825.38
2022-10-15T10:45:57.186Z,93812.03
2022-10-15T10:48:26.054Z,93820.66
2022-10-15T10:51:09.292Z,93817.63
2022-10-15T10:53:42.807Z,93816.50
2022-10-15T10:56:11.525Z,93821.31
2022-10-15T10:58:40.596Z,93817.47
2022-10-15T11:01:11.871Z,93825.31
2022-10-15T11:03:40.907Z,93813.31
2022-10-15T11:06:19.782Z,93813.28
2022-10-15T11:08:49.410Z,93815.13
2022-10-15T11:11:20.384Z,93821.63
2022-10-15T11:13:54.563Z,93822.66
2022-10-15T11:16:25.455Z,93824.81
2022-10-15T11:19:06.186Z,93804.13
2022-10-15T11:21:45.898Z,93807.88
2022-10-15T11:24:16.013Z,93798.34
2022-10-15T11:27:11.735Z,93797.78
2022-10-15T11:29:45.828Z,93810.28
2022-10-15T11:32:21.025Z,93805.09
2022-10-15T11:35:34.520Z,93807.31
2022-10-15T11:38:15.058Z,93806.03
2022-10-15T11:40:47.703Z,93808.81
2022-10-15T11:43:18.197Z,93800.97
2022-10-15T11:46:01.546Z,93806.16
2022-10-15T11:48:35.629Z,93798.06
2022-10-15T11:51:05.195Z,93794.00
2022-10-15T11:53:48.057Z,93807.06
2022-10-15T11:56:17.290Z,93803.28
2022-10-15T11:58:46.401Z,93797.06
2022-10-15T12:01:16.782Z,93815.03
2022-10-15T12:03:47.753Z,93812.06
2022-10-15T12:06:16.950Z,93814.56
2022-10-15T12:08:44.625Z,93806.94
2022-10-15T12:11:17.550Z,93808.34
2022-10-15T12:13:49.498Z,93795.88
2022-10-15T12:16:24.316Z,93802.41
2022-10-15T12:18:54.997Z,93800.47
2022-10-15T12:21:31.604Z,93802.09
2022-10-15T12:23:59.280Z,93796.66
2022-10-15T12:26:28.823Z,93801.31
2022-10-15T12:28:59.540Z,93794.78
2022-10-15T12:31:48.038Z,93799.13
2022-10-15T12:34:27.662Z,93799.69
2022-10-15T12:37:05.890Z,93803.78
2022-10-15T12:39:51.140Z,93808.41
2022-10-15T12:42:22.770Z,93797.81
2022-10-15T12:44:50.414Z,93797.03
2022-10-15T12:47:34.391Z,93802.75
2022-10-15T12:50:05.271Z,93801.94
2022-10-15T12:53:01.581Z,93795.41
2022-10-15T12:55:31.099Z,93790.53
2022-10-15T12:58:01.339Z,93797.34
2022-10-15T13:00:43.513Z,93793.81
2022-10-15T13:03:33.294Z,93796.00
2022-10-15T13:06:29.037Z,93790.31
2022-10-15T13:09:05.145Z,93791.91
2022-10-15T13:11:33.891Z,93791.63
2022-10-15T13:14:03.078Z,93782.69
2022-10-15T13:16:31.133Z,93785.41
2022-10-15T13:19:00.403Z,93793.25
2022-10-15T13:21:49.990Z,93781.59
2022-10-15T13:24:19.258Z,93781.84
2022-10-15T13:26:47.075Z,93780.22
2022-10-15T13:29:17.000Z,93783.78
2022-10-15T13:31:45.225Z,93781.34
2022-10-15T13:34:19.985Z,93774.28
2022-10-15T13:36:47.773Z,93771.03
2022-10-15T13:39:28.421Z,93778.38
2022-10-15T13:42:06.804Z,93768.59
2022-10-15T13:44:34.751Z,93774.03
2022-10-15T13:47:02.519Z,93768.59
2022-10-15T13:49:32.300Z,93774.03
2022-10-15T13:52:03.528Z,93774.84
2022-10-15T13:54:31.671Z,93774.03
2022-10-15T13:57:00.383Z,93772.94
2022-10-15T13:59:29.969Z,93769.41
2022-10-15T14:02:02.054Z,93774.84
2022-10-15T14:04:32.302Z,93769.69
2022-10-15T14:07:03.635Z,93773.22
2022-10-15T14:09:38.450Z,93772.41
2022-10-15T14:12:06.774Z,93775.94
2022-10-15T14:14:35.933Z,93778.66
2022-10-15T14:17:04.680Z,93781.38
2022-10-15T14:19:37.239Z,93787.91
2022-10-15T14:22:06.622Z,93789.00
2022-10-15T14:24:37.172Z,93790.09
2022-10-15T14:27:07.086Z,93791.97
2022-10-15T14:29:42.996Z,93797.69
2022-10-15T14:32:29.020Z,93792.81
2022-10-15T14:35:10.768Z,93795.00
2022-10-15T14:37:43.686Z,93796.63
2022-10-15T14:40:14.960Z,93803.97
2022-10-15T14:42:47.928Z,93791.22
2022-10-15T14:45:26.071Z,93789.59
2022-10-15T14:47:58.107Z,93787.97
2022-10-15T14:50:28.285Z,93797.72
2022-10-15T14:52:55.842Z,93792.81
2022-10-15T14:55:33.499Z,93789.00
2022-10-15T14:58:02.068Z,93790.09
2022-10-15T15:00:30.438Z,93793.84
2022-10-15T15:02:58.152Z,93793.28
2022-10-15T15:05:27.183Z,93794.63
2022-10-15T15:07:55.815Z,93804.09
2022-10-15T15:10:23.729Z,93798.41
2022-10-15T15:12:52.401Z,93800.53
2022-10-15T15:15:20.867Z,93797.56
2022-10-15T15:17:48.811Z,93792.91
2022-10-15T15:20:17.038Z,93788.59
2022-10-15T15:22:46.125Z,93785.88
2022-10-15T15:25:15.244Z,93792.91
2022-10-15T15:27:42.821Z,93797.28
2022-10-15T15:30:16.174Z,93798.34
2022-10-15T15:32:43.803Z,93798.34
2022-10-15T15:35:21.369Z,93793.16
2022-10-15T15:37:50.337Z,93795.88
2022-10-15T15:40:17.969Z,93793.63
2022-10-15T15:42:46.645Z,93794.91
2022-10-15T15:45:19.614Z,93795.41
2022-10-15T15:47:47.324Z,93793.19
2022-10-15T15:50:15.274Z,93794.47
2022-10-15T15:52:43.644Z,93794.97
2022-10-15T15:55:12.728Z,93790.28
2022-10-15T15:57:40.334Z,93791.06
2022-10-15T16:00:10.095Z,93798.34
2022-10-15T16:02:38.993Z,93793.97
2022-10-15T16:05:07.316Z,93796.59
2022-10-15T16:07:37.994Z,93798.75
2022-10-15T16:10:09.236Z,93795.75
2022-10-15T16:12:38.603Z,93793.28
2022-10-15T16:15:10.198Z,93795.41
2022-10-15T16:17:41.715Z,93802.97
2022-10-15T16:20:12.376Z,93808.16
2022-10-15T16:22:40.150Z,93807.28
2022-10-15T16:25:09.258Z,93810.78
2022-10-15T16:27:38.613Z,93804.25
2022-10-15T16:30:07.373Z,93806.69
2022-10-15T16:32:34.991Z,93819.19
2022-10-15T16:35:02.549Z,93817.56
2022-10-15T16:37:30.140Z,93824.91
2022-10-15T16:39:58.284Z,93819.53
2022-10-15T16:42:25.819Z,93825.25
2022-10-15T16:44:54.708Z,93827.47
2022-10-15T16:47:22.478Z,93827.25
2022-10-15T16:49:50.224Z,93828.91
2022-10-15T16:52:17.791Z,93827.88
2022-10-15T16:54:45.398Z,93834.16
2022-10-15T16:57:12.967Z,93841.28
2022-10-15T16:59:40.602Z,93850.00
2022-10-15T17:02:09.906Z,93852.75
2022-10-15T17:04:37.538Z,93854.13
2022-10-15T17:07:05.085Z,93864.78
2022-10-15T17:09:32.680Z,93868.88
2022-10-15T17:12:00.266Z,93862.41
2022-10-15T17:14:27.780Z,93872.44
2022-10-15T17:16:55.451Z,93883.91
2022-10-15T17:19:27.816Z,93878.72
2022-10-15T17:21:58.210Z,93887.47
2022-10-15T17:24:25.773Z,93887.47
2022-10-15T17:26:54.697Z,93885.25
2022-10-15T17:29:27.714Z,93892.88
2022-10-15T17:31:58.440Z,93892.00
2022-10-15T17:34:27.880Z,93896.31
2022-10-15T17:36:56.404Z,93893.53
2022-10-15T17:39:24.122Z,93901.69
2022-10-15T17:41:51.871Z,93898.91
2022-10-15T17:44:19.548Z,93897.75
2022-10-15T17:49:19.556Z,93895.50
2022-10-15T17:51:48.514Z,93895.75
2022-10-15T17:54:16.305Z,93895.97
2022-10-15T17:56:43.979Z,93897.03
2022-10-15T17:59:12.414Z,93898.38
2022-10-15T18:04:28.778Z,93897.50
2022-10-15T18:06:57.741Z,93896.97
2022-10-15T18:09:25.511Z,93887.38
2022-10-15T18:11:53.077Z,93902.59
2022-10-15T18:16:53.178Z,93908.03
2022-10-15T18:19:20.787Z,93919.97
2022-10-15T18:21:49.637Z,93919.69
2022-10-15T18:24:21.790Z,93915.56
2022-10-15T18:26:49.942Z,93914.19
2022-10-15T18:29:17.647Z,93917.44
2022-10-15T18:31:45.157Z,93911.97
2022-10-15T18:34:12.697Z,93914.69
2022-10-15T18:36:42.378Z,93924.22
2022-10-15T18:39:10.058Z,93926.09
2022-10-15T18:41:40.108Z,93930.75
2022-10-15T18:44:09.000Z,93935.91
2022-10-15T18:46:38.337Z,93928.28
2022-10-15T18:49:06.381Z,93932.31
2022-10-15T18:51:33.985Z,93934.25
2022-10-15T18:54:01.618Z,93926.88
2022-10-15T18:56:29.160Z,93928.50
2022-10-15T18:58:58.088Z,93921.94
2022-10-15T19:01:27.338Z,93925.50
2022-10-15T19:04:16.705Z,93917.31
2022-10-15T19:06:45.360Z,93920.84
2022-10-15T19:09:14.236Z,93923.03
2022-10-15T19:11:42.491Z,93926.88
2022-10-15T19:14:11.410Z,93936.66
2022-10-15T19:16:38.944Z,93929.59
2022-10-15T19:19:06.960Z,93938.56
2022-10-15T19:21:35.553Z,93939.69
2022-10-15T19:24:03.129Z,93941.31
2022-10-15T19:26:30.797Z,93944.03
2022-10-15T19:28:58.577Z,93941.06
2022-10-15T19:31:28.542Z,93949.50
2022-10-15T19:33:57.907Z,93942.16
2022-10-15T19:36:26.497Z,93942.16
2022-10-15T19:38:54.152Z,93945.69
2022-10-15T19:41:21.778Z,93948.41
2022-10-15T19:43:49.376Z,93948.19
2022-10-15T19:46:16.988Z,93951.19
2022-10-15T19:48:45.910Z,93945.75
2022-10-15T19:51:13.577Z,93949.84
2022-10-15T19:53:41.376Z,93948.22
2022-10-15T19:56:10.165Z,93956.63
2022-10-15T19:58:37.898Z,93957.97
2022-10-15T20:01:06.191Z,93957.97
2022-10-15T20:06:03.713Z,93967.00
2022-10-15T20:08:31.719Z,93976.00
2022-10-15T20:10:59.777Z,93970.88
2022-10-15T20:13:27.384Z,93973.66
2022-10-15T20:15:55.102Z,93978.03
2022-10-15T20:18:24.609Z,93988.97
2022-10-15T20:20:52.128Z,93987.38
2022-10-15T20:23:22.473Z,93996.41
2022-10-15T20:25:50.064Z,93993.69
2022-10-15T20:28:18.464Z,93985.31
2022-10-15T20:30:47.235Z,93984.25
2022-10-15T20:33:14.917Z,93982.38
2022-10-15T20:35:42.649Z,93979.44
2022-10-15T20:38:10.193Z,93988.44
2022-10-15T20:40:40.220Z,93988.16
2022-10-15T20:43:07.771Z,93988.44
2022-10-15T20:45:39.569Z,93985.50
2022-10-15T20:48:07.297Z,93993.41
2022-10-15T20:50:35.464Z,93994.75
2022-10-15T20:53:02.976Z,93996.97
2022-10-15T20:55:30.516Z,94001.88
2022-10-15T20:57:59.493Z,94019.53
2022-10-15T21:00:27.110Z,94013.56
2022-10-15T21:02:54.691Z,94018.75
2022-10-15T21:05:22.395Z,94025.00
2022-10-15T21:07:50.042Z,94012.25
2022-10-15T21:10:17.742Z,94019.59
2022-10-15T21:12:45.301Z,94022.56
2022-10-15T21:15:14.273Z,94026.66
2022-10-15T21:17:41.935Z,94026.66
2022-10-15T21:20:10.288Z,94030.72
2022-10-15T21:22:37.833Z,94032.66
2022-10-15T21:25:06.366Z,94029.41
2022-10-15T21:27:33.976Z,94035.94
2022-10-15T21:30:01.491Z,94028.03
2022-10-15T21:32:30.397Z,94032.13
2022-10-15T21:34:57.969Z,94035.13
2022-10-15T21:37:25.766Z,94031.06
2022-10-15T21:39:53.579Z,94042.75
2022-10-15T21:42:21.138Z,94043.03
2022-10-15T21:44:48.715Z,94044.13
2022-10-15T21:47:16.313Z,94051.44
2022-10-15T21:49:45.742Z,94047.41
2022-10-15T21:52:13.565Z,94048.50
2022-10-15T21:54:41.077Z,94044.94
2022-10-15T21:57:08.604Z,94051.47
2022-10-15T21:59:36.136Z,94063.44
2022-10-15T22:02:03.846Z,94059.09
2022-10-15T22:04:33.901Z,94062.59
2022-10-15T22:07:03.059Z,94062.91
2022-10-15T22:09:30.956Z,94067.50
2022-10-15T22:11:58.565Z,94065.88
2022-10-15T22:14:26.132Z,94062.38
2022-10-15T22:16:53.700Z,94060.75
2022-10-15T22:19:21.336Z,94058.28
2022-10-15T22:21:48.873Z,94057.47
2022-10-15T22:24:18.654Z,94057.47
2022-10-15T22:26:47.429Z,94059.38
2022-10-15T22:29:18.512Z,94054.22
2022-10-15T22:31:46.103Z,94056.94
2022-10-15T22:34:13.719Z,94048.78
2022-10-15T22:36:41.236Z,94052.59
2022-10-15T22:39:09.028Z,94051.78
2022-10-15T22:41:39.594Z,94053.69
2022-10-15T22:44:07.254Z,94045.53
2022-10-15T22:46:35.221Z,94051.22
2022-10-15T22:49:02.781Z,94059.38
2022-10-15T22:51:30.318Z,94063.19
2022-10-15T22:53:57.971Z,94062.38
2022-10-15T22:56:25.808Z,94061.56
2022-10-15T22:58:55.489Z,94062.66
2022-10-15T23:01:23.872Z,94056.44
2022-10-15T23:03:52.088Z,94067.28
2022-10-15T23:06:20.309Z,94048.53
2022-10-15T23:08:48.048Z,94056.69
2022-10-15T23:11:16.752Z,94061.31
2022-10-15T23:13:44.468Z,94060.50
2022-10-15T23:16:14.683Z,94068.66
2022-10-15T23:18:43.427Z,94076.78
2022-10-15T23:21:13.178Z,94069.72
2022-10-15T23:23:40.725Z,94073.53
2022-10-15T23:26:08.287Z,94070.00
2022-10-15T23:28:35.943Z,94064.56
2022-10-15T23:31:03.488Z,94060.22
2022-10-15T23:33:32.421Z,94061.31
2022-10-15T23:36:00.796Z,94064.88
2022-10-15T23:38:28.569Z,94068.66
2022-10-15T23:41:02.565Z,94065.94
2022-10-15T23:43:30.133Z,94087.09
2022-10-15T23:45:57.819Z,94090.66
2022-10-15T23:48:25.993Z,94087.09
2022-10-15T23:51:14.464Z,94087.09
2022-10-15T23:56:14.761Z,94088.19
2022-10-15T23:58:42.411Z,94083.84
